sensor_id;sensor_type;location;lat;lon;timestamp;temperature;humidity
11246;DHT22;59870;50.106;8.580;2023-03-05T00:01:26;10.40;80.00
11246;DHT22;59870;50.106;8.580;2023-03-05T00:03:55;10.40;80.50
11246;DHT22;59870;50.106;8.580;2023-03-05T00:06:25;10.50;80.60
11246;DHT22;59870;50.106;8.580;2023-03-05T00:08:53;10.40;79.90
11246;DHT22;59870;50.106;8.580;2023-03-05T00:11:23;10.50;80.60
11246;DHT22;59870;50.106;8.580;2023-03-05T00:13:52;10.40;79.90
11246;DHT22;59870;50.106;8.580;2023-03-05T00:16:21;10.40;80.30
11246;DHT22;59870;50.106;8.580;2023-03-05T00:18:49;10.40;80.50
11246;DHT22;59870;50.106;8.580;2023-03-05T00:21:36;10.40;79.90
11246;DHT22;59870;50.106;8.580;2023-03-05T00:24:07;10.70;80.10
11246;DHT22;59870;50.106;8.580;2023-03-05T00:26:37;10.40;79.80
11246;DHT22;59870;50.106;8.580;2023-03-05T00:29:07;10.40;79.50
11246;DHT22;59870;50.106;8.580;2023-03-05T00:31:36;10.40;79.60
11246;DHT22;59870;50.106;8.580;2023-03-05T00:34:09;10.30;78.90
11246;DHT22;59870;50.106;8.580;2023-03-05T00:36:42;10.40;79.70
11246;DHT22;59870;50.106;8.580;2023-03-05T00:39:10;10.40;79.70
11246;DHT22;59870;50.106;8.580;2023-03-05T00:41:38;10.40;79.60
11246;DHT22;59870;50.106;8.580;2023-03-05T00:44:06;10.40;79.60
11246;DHT22;59870;50.106;8.580;2023-03-05T00:46:35;10.40;80.10
11246;DHT22;59870;50.106;8.580;2023-03-05T00:49:03;10.40;80.00
11246;DHT22;59870;50.106;8.580;2023-03-05T00:51:30;10.40;79.60
11246;DHT22;59870;50.106;8.580;2023-03-05T00:53:57;10.40;79.30
11246;DHT22;59870;50.106;8.580;2023-03-05T00:56:25;10.40;79.60
11246;DHT22;59870;50.106;8.580;2023-03-05T00:58:54;10.40;79.20
11246;DHT22;59870;50.106;8.580;2023-03-05T01:01:22;10.30;79.20
11246;DHT22;59870;50.106;8.580;2023-03-05T01:03:50;10.30;79.00
11246;DHT22;59870;50.106;8.580;2023-03-05T01:06:17;10.30;78.90
11246;DHT22;59870;50.106;8.580;2023-03-05T01:08:45;10.30;79.00
11246;DHT22;59870;50.106;8.580;2023-03-05T01:11:13;10.30;78.90
11246;DHT22;59870;50.106;8.580;2023-03-05T01:13:41;10.30;78.80
11246;DHT22;59870;50.106;8.580;2023-03-05T01:16:08;10.30;78.80
11246;DHT22;59870;50.106;8.580;2023-03-05T01:18:37;10.30;78.80
11246;DHT22;59870;50.106;8.580;2023-03-05T01:21:04;10.30;79.30
11246;DHT22;59870;50.106;8.580;2023-03-05T01:23:33;10.30;79.20
11246;DHT22;59870;50.106;8.580;2023-03-05T01:26:02;10.30;78.60
11246;DHT22;59870;50.106;8.580;2023-03-05T01:28:29;10.20;78.60
11246;DHT22;59870;50.106;8.580;2023-03-05T01:30:58;10.30;78.20
11246;DHT22;59870;50.106;8.580;2023-03-05T01:33:25;10.30;77.10
11246;DHT22;59870;50.106;8.580;2023-03-05T01:35:53;10.30;76.30
11246;DHT22;59870;50.106;8.580;2023-03-05T01:38:21;10.30;76.00
11246;DHT22;59870;50.106;8.580;2023-03-05T01:40:48;10.20;75.80
11246;DHT22;59870;50.106;8.580;2023-03-05T01:43:27;10.20;76.00
11246;DHT22;59870;50.106;8.580;2023-03-05T01:48:47;10.10;76.40
11246;DHT22;59870;50.106;8.580;2023-03-05T01:51:17;10.10;76.20
11246;DHT22;59870;50.106;8.580;2023-03-05T01:53:46;10.10;76.80
11246;DHT22;59870;50.106;8.580;2023-03-05T01:56:14;10.10;76.40
11246;DHT22;59870;50.106;8.580;2023-03-05T01:58:46;10.00;76.50
11246;DHT22;59870;50.106;8.580;2023-03-05T02:01:14;10.00;75.50
11246;DHT22;59870;50.106;8.580;2023-03-05T02:03:44;10.00;75.20
11246;DHT22;59870;50.106;8.580;2023-03-05T02:06:12;10.00;74.00
11246;DHT22;59870;50.106;8.580;2023-03-05T02:08:40;10.00;73.80
11246;DHT22;59870;50.106;8.580;2023-03-05T02:11:07;10.60;73.20
11246;DHT22;59870;50.106;8.580;2023-03-05T02:13:36;10.00;72.80
11246;DHT22;59870;50.106;8.580;2023-03-05T02:16:07;9.90;74.10
11246;DHT22;59870;50.106;8.580;2023-03-05T02:18:35;9.90;74.70
11246;DHT22;59870;50.106;8.580;2023-03-05T02:21:07;9.90;74.80
11246;DHT22;59870;50.106;8.580;2023-03-05T02:23:37;9.90;75.60
11246;DHT22;59870;50.106;8.580;2023-03-05T02:26:08;10.00;74.70
11246;DHT22;59870;50.106;8.580;2023-03-05T02:28:42;10.00;74.90
11246;DHT22;59870;50.106;8.580;2023-03-05T02:31:20;10.00;74.20
11246;DHT22;59870;50.106;8.580;2023-03-05T02:33:48;10.00;74.20
11246;DHT22;59870;50.106;8.580;2023-03-05T02:36:17;10.10;75.00
11246;DHT22;59870;50.106;8.580;2023-03-05T02:38:45;10.00;74.70
11246;DHT22;59870;50.106;8.580;2023-03-05T02:41:14;9.90;75.80
11246;DHT22;59870;50.106;8.580;2023-03-05T02:43:42;10.00;74.60
11246;DHT22;59870;50.106;8.580;2023-03-05T02:46:10;10.00;74.20
11246;DHT22;59870;50.106;8.580;2023-03-05T02:48:38;10.00;74.10
11246;DHT22;59870;50.106;8.580;2023-03-05T02:51:07;10.00;74.20
11246;DHT22;59870;50.106;8.580;2023-03-05T02:53:35;10.00;74.10
11246;DHT22;59870;50.106;8.580;2023-03-05T02:56:02;10.00;74.70
11246;DHT22;59870;50.106;8.580;2023-03-05T02:58:33;10.00;74.40
11246;DHT22;59870;50.106;8.580;2023-03-05T03:01:00;10.00;74.20
11246;DHT22;59870;50.106;8.580;2023-03-05T03:03:29;10.00;74.30
11246;DHT22;59870;50.106;8.580;2023-03-05T03:05:56;10.00;74.20
11246;DHT22;59870;50.106;8.580;2023-03-05T03:08:23;10.00;74.00
11246;DHT22;59870;50.106;8.580;2023-03-05T03:10:51;9.90;74.90
11246;DHT22;59870;50.106;8.580;2023-03-05T03:13:18;10.00;73.40
11246;DHT22;59870;50.106;8.580;2023-03-05T03:15:45;10.00;73.30
11246;DHT22;59870;50.106;8.580;2023-03-05T03:18:13;9.90;74.10
11246;DHT22;59870;50.106;8.580;2023-03-05T03:20:40;9.90;73.80
11246;DHT22;59870;50.106;8.580;2023-03-05T03:23:07;9.90;73.60
11246;DHT22;59870;50.106;8.580;2023-03-05T03:25:35;9.90;73.40
11246;DHT22;59870;50.106;8.580;2023-03-05T03:28:02;9.90;73.50
11246;DHT22;59870;50.106;8.580;2023-03-05T03:30:29;9.90;73.40
11246;DHT22;59870;50.106;8.580;2023-03-05T03:32:57;9.90;73.30
11246;DHT22;59870;50.106;8.580;2023-03-05T03:35:24;9.80;73.30
11246;DHT22;59870;50.106;8.580;2023-03-05T03:37:51;9.90;73.60
11246;DHT22;59870;50.106;8.580;2023-03-05T03:40:19;9.90;73.80
11246;DHT22;59870;50.106;8.580;2023-03-05T03:42:46;9.90;73.80
11246;DHT22;59870;50.106;8.580;2023-03-05T03:45:13;9.90;74.00
11246;DHT22;59870;50.106;8.580;2023-03-05T03:47:41;9.90;74.20
11246;DHT22;59870;50.106;8.580;2023-03-05T03:50:10;9.90;74.30
11246;DHT22;59870;50.106;8.580;2023-03-05T03:52:37;9.80;74.50
11246;DHT22;59870;50.106;8.580;2023-03-05T03:55:06;9.80;74.50
11246;DHT22;59870;50.106;8.580;2023-03-05T03:57:33;9.80;74.70
11246;DHT22;59870;50.106;8.580;2023-03-05T04:00:02;9.80;75.00
11246;DHT22;59870;50.106;8.580;2023-03-05T04:02:38;9.90;75.80
11246;DHT22;59870;50.106;8.580;2023-03-05T04:05:06;9.80;75.50
11246;DHT22;59870;50.106;8.580;2023-03-05T04:07:34;10.10;74.90
11246;DHT22;59870;50.106;8.580;2023-03-05T04:10:02;9.80;75.90
11246;DHT22;59870;50.106;8.580;2023-03-05T04:12:30;9.80;76.60
11246;DHT22;59870;50.106;8.580;2023-03-05T04:14:58;9.80;76.60
11246;DHT22;59870;50.106;8.580;2023-03-05T04:17:25;9.80;76.00
11246;DHT22;59870;50.106;8.580;2023-03-05T04:19:52;9.80;75.90
11246;DHT22;59870;50.106;8.580;2023-03-05T04:22:20;9.80;76.10
11246;DHT22;59870;50.106;8.580;2023-03-05T04:24:47;9.80;75.70
11246;DHT22;59870;50.106;8.580;2023-03-05T04:27:15;9.70;75.40
11246;DHT22;59870;50.106;8.580;2023-03-05T04:29:42;9.70;75.40
11246;DHT22;59870;50.106;8.580;2023-03-05T04:32:09;10.30;75.10
11246;DHT22;59870;50.106;8.580;2023-03-05T04:34:37;9.70;76.00
11246;DHT22;59870;50.106;8.580;2023-03-05T04:37:04;9.70;76.00
11246;DHT22;59870;50.106;8.580;2023-03-05T04:39:32;9.70;75.10
11246;DHT22;59870;50.106;8.580;2023-03-05T04:41:59;9.70;74.40
11246;DHT22;59870;50.106;8.580;2023-03-05T04:44:26;9.70;73.40
11246;DHT22;59870;50.106;8.580;2023-03-05T04:46:54;9.70;72.40
11246;DHT22;59870;50.106;8.580;2023-03-05T04:49:21;9.60;71.50
11246;DHT22;59870;50.106;8.580;2023-03-05T04:51:48;9.60;71.60
11246;DHT22;59870;50.106;8.580;2023-03-05T04:54:16;9.50;71.30
11246;DHT22;59870;50.106;8.580;2023-03-05T04:56:43;9.50;71.40
11246;DHT22;59870;50.106;8.580;2023-03-05T04:59:10;9.40;71.70
11246;DHT22;59870;50.106;8.580;2023-03-05T05:01:38;9.40;71.30
11246;DHT22;59870;50.106;8.580;2023-03-05T05:04:05;9.40;71.70
11246;DHT22;59870;50.106;8.580;2023-03-05T05:06:33;9.30;71.70
11246;DHT22;59870;50.106;8.580;2023-03-05T05:09:00;9.30;71.50
11246;DHT22;59870;50.106;8.580;2023-03-05T05:11:28;9.30;70.70
11246;DHT22;59870;50.106;8.580;2023-03-05T05:13:55;9.30;71.30
11246;DHT22;59870;50.106;8.580;2023-03-05T05:16:23;9.30;71.40
11246;DHT22;59870;50.106;8.580;2023-03-05T05:18:50;9.20;71.30
11246;DHT22;59870;50.106;8.580;2023-03-05T05:21:18;9.20;70.90
11246;DHT22;59870;50.106;8.580;2023-03-05T05:23:46;9.30;71.10
11246;DHT22;59870;50.106;8.580;2023-03-05T05:26:14;9.20;71.10
11246;DHT22;59870;50.106;8.580;2023-03-05T05:28:42;9.30;71.20
11246;DHT22;59870;50.106;8.580;2023-03-05T05:31:13;9.30;71.40
11246;DHT22;59870;50.106;8.580;2023-03-05T05:33:41;9.30;71.00
11246;DHT22;59870;50.106;8.580;2023-03-05T05:36:11;9.30;72.20
11246;DHT22;59870;50.106;8.580;2023-03-05T05:38:39;9.30;72.00
11246;DHT22;59870;50.106;8.580;2023-03-05T05:41:09;9.40;72.20
11246;DHT22;59870;50.106;8.580;2023-03-05T05:43:37;9.30;71.90
11246;DHT22;59870;50.106;8.580;2023-03-05T05:46:07;9.30;71.60
11246;DHT22;59870;50.106;8.580;2023-03-05T05:48:35;9.30;72.20
11246;DHT22;59870;50.106;8.580;2023-03-05T05:51:11;9.30;71.90
11246;DHT22;59870;50.106;8.580;2023-03-05T05:53:39;9.40;72.00
11246;DHT22;59870;50.106;8.580;2023-03-05T05:56:08;9.40;72.10
11246;DHT22;59870;50.106;8.580;2023-03-05T05:58:38;9.40;72.30
11246;DHT22;59870;50.106;8.580;2023-03-05T06:01:24;9.40;72.10
11246;DHT22;59870;50.106;8.580;2023-03-05T06:03:53;9.40;72.00
11246;DHT22;59870;50.106;8.580;2023-03-05T06:06:23;9.40;71.60
11246;DHT22;59870;50.106;8.580;2023-03-05T06:08:51;9.40;71.50
11246;DHT22;59870;50.106;8.580;2023-03-05T06:11:19;9.40;71.90
11246;DHT22;59870;50.106;8.580;2023-03-05T06:13:47;9.40;71.30
11246;DHT22;59870;50.106;8.580;2023-03-05T06:16:17;9.40;71.30
11246;DHT22;59870;50.106;8.580;2023-03-05T06:18:46;9.40;71.60
11246;DHT22;59870;50.106;8.580;2023-03-05T06:21:15;9.40;71.80
11246;DHT22;59870;50.106;8.580;2023-03-05T06:23:44;9.40;71.90
11246;DHT22;59870;50.106;8.580;2023-03-05T06:26:13;9.40;71.60
11246;DHT22;59870;50.106;8.580;2023-03-05T06:28:42;9.30;71.90
11246;DHT22;59870;50.106;8.580;2023-03-05T06:31:18;9.40;71.40
11246;DHT22;59870;50.106;8.580;2023-03-05T06:33:48;9.30;71.40
11246;DHT22;59870;50.106;8.580;2023-03-05T06:36:18;9.30;71.00
11246;DHT22;59870;50.106;8.580;2023-03-05T06:38:46;9.30;70.80
11246;DHT22;59870;50.106;8.580;2023-03-05T06:41:18;9.30;70.50
11246;DHT22;59870;50.106;8.580;2023-03-05T06:43:46;9.30;70.70
11246;DHT22;59870;50.106;8.580;2023-03-05T06:48:42;9.30;69.60
11246;DHT22;59870;50.106;8.580;2023-03-05T06:51:15;9.30;69.40
11246;DHT22;59870;50.106;8.580;2023-03-05T06:53:44;9.30;69.80
11246;DHT22;59870;50.106;8.580;2023-03-05T06:56:14;9.30;69.20
11246;DHT22;59870;50.106;8.580;2023-03-05T06:58:44;9.30;69.30
11246;DHT22;59870;50.106;8.580;2023-03-05T07:01:13;9.30;69.90
11246;DHT22;59870;50.106;8.580;2023-03-05T07:03:40;9.30;69.40
11246;DHT22;59870;50.106;8.580;2023-03-05T07:06:10;9.30;69.30
11246;DHT22;59870;50.106;8.580;2023-03-05T07:08:38;9.30;69.80
11246;DHT22;59870;50.106;8.580;2023-03-05T07:11:14;9.30;69.60
11246;DHT22;59870;50.106;8.580;2023-03-05T07:13:42;9.20;70.30
11246;DHT22;59870;50.106;8.580;2023-03-05T07:16:13;9.30;70.20
11246;DHT22;59870;50.106;8.580;2023-03-05T07:18:41;9.20;70.80
11246;DHT22;59870;50.106;8.580;2023-03-05T07:21:09;9.20;70.60
11246;DHT22;59870;50.106;8.580;2023-03-05T07:23:39;9.20;71.00
11246;DHT22;59870;50.106;8.580;2023-03-05T07:26:06;9.20;70.70
11246;DHT22;59870;50.106;8.580;2023-03-05T07:28:33;9.20;71.10
11246;DHT22;59870;50.106;8.580;2023-03-05T07:31:05;9.20;71.50
11246;DHT22;59870;50.106;8.580;2023-03-05T07:33:35;9.20;71.80
11246;DHT22;59870;50.106;8.580;2023-03-05T07:36:06;9.30;72.10
11246;DHT22;59870;50.106;8.580;2023-03-05T07:38:34;9.30;72.40
11246;DHT22;59870;50.106;8.580;2023-03-05T07:41:13;9.30;72.60
11246;DHT22;59870;50.106;8.580;2023-03-05T07:43:44;9.30;72.70
11246;DHT22;59870;50.106;8.580;2023-03-05T07:46:15;9.30;72.90
11246;DHT22;59870;50.106;8.580;2023-03-05T07:48:42;9.30;73.10
11246;DHT22;59870;50.106;8.580;2023-03-05T07:51:13;9.40;72.70
11246;DHT22;59870;50.106;8.580;2023-03-05T07:53:45;9.30;73.40
11246;DHT22;59870;50.106;8.580;2023-03-05T07:56:19;9.30;73.50
11246;DHT22;59870;50.106;8.580;2023-03-05T07:58:46;9.30;73.40
11246;DHT22;59870;50.106;8.580;2023-03-05T08:01:14;9.40;73.50
11246;DHT22;59870;50.106;8.580;2023-03-05T08:03:42;9.30;73.70
11246;DHT22;59870;50.106;8.580;2023-03-05T08:06:11;9.30;74.30
11246;DHT22;59870;50.106;8.580;2023-03-05T08:08:38;9.30;74.60
11246;DHT22;59870;50.106;8.580;2023-03-05T08:11:08;9.30;74.10
11246;DHT22;59870;50.106;8.580;2023-03-05T08:13:36;9.40;74.20
11246;DHT22;59870;50.106;8.580;2023-03-05T08:16:08;9.40;74.30
11246;DHT22;59870;50.106;8.580;2023-03-05T08:18:36;9.40;75.00
11246;DHT22;59870;50.106;8.580;2023-03-05T08:21:13;9.40;74.50
11246;DHT22;59870;50.106;8.580;2023-03-05T08:23:42;9.80;74.90
11246;DHT22;59870;50.106;8.580;2023-03-05T08:26:12;9.80;74.80
11246;DHT22;59870;50.106;8.580;2023-03-05T08:28:40;9.50;75.30
11246;DHT22;59870;50.106;8.580;2023-03-05T08:31:09;9.50;75.30
11246;DHT22;59870;50.106;8.580;2023-03-05T08:33:37;9.50;75.50
11246;DHT22;59870;50.106;8.580;2023-03-05T08:36:06;9.50;75.50
11246;DHT22;59870;50.106;8.580;2023-03-05T08:38:35;9.50;75.40
11246;DHT22;59870;50.106;8.580;2023-03-05T08:41:03;9.50;75.00
11246;DHT22;59870;50.106;8.580;2023-03-05T08:43:31;9.50;75.20
11246;DHT22;59870;50.106;8.580;2023-03-05T08:46:00;9.60;74.00
11246;DHT22;59870;50.106;8.580;2023-03-05T08:48:29;9.60;74.60
11246;DHT22;59870;50.106;8.580;2023-03-05T08:51:07;9.60;74.20
11246;DHT22;59870;50.106;8.580;2023-03-05T08:53:35;9.60;73.80
11246;DHT22;59870;50.106;8.580;2023-03-05T08:56:03;9.60;74.00
11246;DHT22;59870;50.106;8.580;2023-03-05T08:58:31;9.60;73.20
11246;DHT22;59870;50.106;8.580;2023-03-05T09:00:58;9.30;73.00
11246;DHT22;59870;50.106;8.580;2023-03-05T09:03:26;9.60;73.10
11246;DHT22;59870;50.106;8.580;2023-03-05T09:05:58;9.70;72.50
11246;DHT22;59870;50.106;8.580;2023-03-05T09:08:27;9.70;71.80
11246;DHT22;59870;50.106;8.580;2023-03-05T09:10:55;9.80;71.80
11246;DHT22;59870;50.106;8.580;2023-03-05T09:13:24;9.80;71.80
11246;DHT22;59870;50.106;8.580;2023-03-05T09:15:56;9.80;72.20
11246;DHT22;59870;50.106;8.580;2023-03-05T09:18:25;9.80;72.30
11246;DHT22;59870;50.106;8.580;2023-03-05T09:20:53;9.80;71.80
11246;DHT22;59870;50.106;8.580;2023-03-05T09:23:20;9.80;71.00
11246;DHT22;59870;50.106;8.580;2023-03-05T09:25:48;9.90;71.20
11246;DHT22;59870;50.106;8.580;2023-03-05T09:28:16;9.90;70.60
11246;DHT22;59870;50.106;8.580;2023-03-05T09:30:43;9.90;70.20
11246;DHT22;59870;50.106;8.580;2023-03-05T09:33:10;10.10;69.90
11246;DHT22;59870;50.106;8.580;2023-03-05T09:35:38;9.90;71.00
11246;DHT22;59870;50.106;8.580;2023-03-05T09:38:05;9.90;71.10
11246;DHT22;59870;50.106;8.580;2023-03-05T09:43:53;10.00;70.50
11246;DHT22;59870;50.106;8.580;2023-03-05T09:49:23;10.00;69.10
11246;DHT22;59870;50.106;8.580;2023-03-05T09:52:02;10.00;69.20
11246;DHT22;59870;50.106;8.580;2023-03-05T09:54:38;10.10;68.80
11246;DHT22;59870;50.106;8.580;2023-03-05T09:57:15;10.10;68.80
11246;DHT22;59870;50.106;8.580;2023-03-05T09:59:51;10.10;68.80
11246;DHT22;59870;50.106;8.580;2023-03-05T10:02:26;10.20;68.60
11246;DHT22;59870;50.106;8.580;2023-03-05T10:05:02;10.20;69.50
11246;DHT22;59870;50.106;8.580;2023-03-05T10:07:33;10.30;69.40
11246;DHT22;59870;50.106;8.580;2023-03-05T10:10:08;10.30;69.10
11246;DHT22;59870;50.106;8.580;2023-03-05T10:12:40;10.40;68.30
11246;DHT22;59870;50.106;8.580;2023-03-05T10:17:57;10.50;68.20
11246;DHT22;59870;50.106;8.580;2023-03-05T10:23:31;10.60;68.40
11246;DHT22;59870;50.106;8.580;2023-03-05T10:26:07;10.70;67.50
11246;DHT22;59870;50.106;8.580;2023-03-05T10:31:54;10.70;67.30
11246;DHT22;59870;50.106;8.580;2023-03-05T10:34:52;10.80;66.20
11246;DHT22;59870;50.106;8.580;2023-03-05T10:40:31;10.80;66.20
11246;DHT22;59870;50.106;8.580;2023-03-05T10:45:53;10.90;66.20
11246;DHT22;59870;50.106;8.580;2023-03-05T10:51:18;10.80;66.80
11246;DHT22;59870;50.106;8.580;2023-03-05T10:53:56;10.90;67.10
11246;DHT22;59870;50.106;8.580;2023-03-05T10:56:26;10.80;67.50
11246;DHT22;59870;50.106;8.580;2023-03-05T10:58:54;10.80;67.00
11246;DHT22;59870;50.106;8.580;2023-03-05T11:01:27;10.80;67.30
11246;DHT22;59870;50.106;8.580;2023-03-05T11:03:59;10.70;68.10
11246;DHT22;59870;50.106;8.580;2023-03-05T11:06:33;10.70;68.40
11246;DHT22;59870;50.106;8.580;2023-03-05T11:14:29;10.70;68.50
11246;DHT22;59870;50.106;8.580;2023-03-05T11:17:00;10.70;69.60
11246;DHT22;59870;50.106;8.580;2023-03-05T11:19:32;10.70;70.20
11246;DHT22;59870;50.106;8.580;2023-03-05T11:24:40;10.60;70.20
11246;DHT22;59870;50.106;8.580;2023-03-05T11:27:30;10.60;70.00
11246;DHT22;59870;50.106;8.580;2023-03-05T11:29:58;10.60;70.40
11246;DHT22;59870;50.106;8.580;2023-03-05T11:32:27;10.60;70.20
11246;DHT22;59870;50.106;8.580;2023-03-05T11:34:56;10.60;70.80
11246;DHT22;59870;50.106;8.580;2023-03-05T11:37:29;10.60;70.20
11246;DHT22;59870;50.106;8.580;2023-03-05T11:40:21;10.60;70.60
11246;DHT22;59870;50.106;8.580;2023-03-05T11:42:54;10.60;71.70
11246;DHT22;59870;50.106;8.580;2023-03-05T11:45:58;10.60;70.20
11246;DHT22;59870;50.106;8.580;2023-03-05T11:48:36;10.60;70.20
11246;DHT22;59870;50.106;8.580;2023-03-05T11:51:25;10.60;69.60
11246;DHT22;59870;50.106;8.580;2023-03-05T11:54:51;10.20;69.70
11246;DHT22;59870;50.106;8.580;2023-03-05T12:04:31;10.70;69.90
11246;DHT22;59870;50.106;8.580;2023-03-05T12:07:01;10.80;70.20
11246;DHT22;59870;50.106;8.580;2023-03-05T12:09:41;11.10;69.80
11246;DHT22;59870;50.106;8.580;2023-03-05T12:15:24;10.90;69.20
11246;DHT22;59870;50.106;8.580;2023-03-05T12:20:51;10.90;67.70
11246;DHT22;59870;50.106;8.580;2023-03-05T12:23:22;11.00;69.20
11246;DHT22;59870;50.106;8.580;2023-03-05T12:25:55;11.10;66.50
11246;DHT22;59870;50.106;8.580;2023-03-05T12:31:50;11.20;67.20
11246;DHT22;59870;50.106;8.580;2023-03-05T12:33:52;11.30;67.80
11246;DHT22;59870;50.106;8.580;2023-03-05T12:51:50;11.70;64.40
11246;DHT22;59870;50.106;8.580;2023-03-05T12:56:53;11.60;63.50
11246;DHT22;59870;50.106;8.580;2023-03-05T12:59:27;11.60;63.90
11246;DHT22;59870;50.106;8.580;2023-03-05T13:02:00;11.70;64.10
11246;DHT22;59870;50.106;8.580;2023-03-05T13:04:31;11.70;63.80
11246;DHT22;59870;50.106;8.580;2023-03-05T13:07:01;11.70;62.90
11246;DHT22;59870;50.106;8.580;2023-03-05T13:09:32;11.60;63.20
11246;DHT22;59870;50.106;8.580;2023-03-05T13:12:03;11.60;63.00
11246;DHT22;59870;50.106;8.580;2023-03-05T13:14:38;11.60;63.00
11246;DHT22;59870;50.106;8.580;2023-03-05T13:17:26;11.60;63.00
11246;DHT22;59870;50.106;8.580;2023-03-05T13:19:56;11.60;63.10
11246;DHT22;59870;50.106;8.580;2023-03-05T13:22:25;11.60;62.20
11246;DHT22;59870;50.106;8.580;2023-03-05T13:25:13;11.60;61.50
11246;DHT22;59870;50.106;8.580;2023-03-05T13:27:42;11.60;63.20
11246;DHT22;59870;50.106;8.580;2023-03-05T13:30:26;11.70;62.00
11246;DHT22;59870;50.106;8.580;2023-03-05T13:33:00;11.70;62.80
11246;DHT22;59870;50.106;8.580;2023-03-05T13:35:32;11.90;63.30
11246;DHT22;59870;50.106;8.580;2023-03-05T13:38:00;11.60;63.00
11246;DHT22;59870;50.106;8.580;2023-03-05T13:40:31;11.60;62.30
11246;DHT22;59870;50.106;8.580;2023-03-05T13:43:16;11.60;62.70
11246;DHT22;59870;50.106;8.580;2023-03-05T13:45:52;11.60;63.00
11246;DHT22;59870;50.106;8.580;2023-03-05T13:48:21;11.60;62.40
11246;DHT22;59870;50.106;8.580;2023-03-05T13:50:57;11.70;61.10
11246;DHT22;59870;50.106;8.580;2023-03-05T13:53:30;11.70;61.60
11246;DHT22;59870;50.106;8.580;2023-03-05T13:56:06;11.70;61.50
11246;DHT22;59870;50.106;8.580;2023-03-05T13:58:51;11.70;62.30
11246;DHT22;59870;50.106;8.580;2023-03-05T14:04:03;11.60;62.80
11246;DHT22;59870;50.106;8.580;2023-03-05T14:06:36;11.60;63.30
11246;DHT22;59870;50.106;8.580;2023-03-05T14:09:17;11.60;62.90
11246;DHT22;59870;50.106;8.580;2023-03-05T14:14:22;11.60;63.20
11246;DHT22;59870;50.106;8.580;2023-03-05T14:16:50;11.60;63.20
11246;DHT22;59870;50.106;8.580;2023-03-05T14:19:35;11.60;62.90
11246;DHT22;59870;50.106;8.580;2023-03-05T14:22:04;11.50;63.10
11246;DHT22;59870;50.106;8.580;2023-03-05T14:24:32;11.60;63.70
11246;DHT22;59870;50.106;8.580;2023-03-05T14:27:03;11.60;63.30
11246;DHT22;59870;50.106;8.580;2023-03-05T14:29:35;11.60;62.90
11246;DHT22;59870;50.106;8.580;2023-03-05T14:32:07;11.70;62.80
11246;DHT22;59870;50.106;8.580;2023-03-05T14:34:54;11.60;62.90
11246;DHT22;59870;50.106;8.580;2023-03-05T14:37:26;11.60;62.90
11246;DHT22;59870;50.106;8.580;2023-03-05T14:39:57;11.60;63.00
11246;DHT22;59870;50.106;8.580;2023-03-05T14:42:54;11.60;63.10
11246;DHT22;59870;50.106;8.580;2023-03-05T14:45:25;11.50;62.90
11246;DHT22;59870;50.106;8.580;2023-03-05T14:47:55;11.50;62.30
11246;DHT22;59870;50.106;8.580;2023-03-05T14:50:34;11.50;62.10
11246;DHT22;59870;50.106;8.580;2023-03-05T14:53:05;11.50;62.60
11246;DHT22;59870;50.106;8.580;2023-03-05T14:55:34;11.50;62.30
11246;DHT22;59870;50.106;8.580;2023-03-05T14:58:05;11.50;61.30
11246;DHT22;59870;50.106;8.580;2023-03-05T15:00:33;11.50;61.60
11246;DHT22;59870;50.106;8.580;2023-03-05T15:03:01;11.50;61.60
11246;DHT22;59870;50.106;8.580;2023-03-05T15:05:29;11.50;61.80
11246;DHT22;59870;50.106;8.580;2023-03-05T15:07:58;11.40;61.70
11246;DHT22;59870;50.106;8.580;2023-03-05T15:10:25;11.70;62.10
11246;DHT22;59870;50.106;8.580;2023-03-05T15:12:53;11.30;61.50
11246;DHT22;59870;50.106;8.580;2023-03-05T15:15:21;11.40;61.80
11246;DHT22;59870;50.106;8.580;2023-03-05T15:17:49;11.40;61.90
11246;DHT22;59870;50.106;8.580;2023-03-05T15:20:27;11.60;62.30
11246;DHT22;59870;50.106;8.580;2023-03-05T15:23:01;11.90;63.10
11246;DHT22;59870;50.106;8.580;2023-03-05T15:25:33;11.40;61.60
11246;DHT22;59870;50.106;8.580;2023-03-05T15:28:01;11.30;62.70
11246;DHT22;59870;50.106;8.580;2023-03-05T15:30:37;11.30;62.20
11246;DHT22;59870;50.106;8.580;2023-03-05T15:33:10;11.30;63.10
11246;DHT22;59870;50.106;8.580;2023-03-05T15:36:28;11.20;62.40
11246;DHT22;59870;50.106;8.580;2023-03-05T15:39:38;11.60;63.00
11246;DHT22;59870;50.106;8.580;2023-03-05T15:42:51;10.80;62.40
11246;DHT22;59870;50.106;8.580;2023-03-05T15:45:20;11.50;63.10
11246;DHT22;59870;50.106;8.580;2023-03-05T15:47:52;10.70;62.40
11246;DHT22;59870;50.106;8.580;2023-03-05T15:50:23;11.10;62.60
11246;DHT22;59870;50.106;8.580;2023-03-05T15:52:57;11.40;62.90
11246;DHT22;59870;50.106;8.580;2023-03-05T15:56:32;10.70;63.00
11246;DHT22;59870;50.106;8.580;2023-03-05T16:00:38;11.10;63.60
11246;DHT22;59870;50.106;8.580;2023-03-05T16:07:50;10.70;63.40
11246;DHT22;59870;50.106;8.580;2023-03-05T16:41:54;10.70;64.40
11246;DHT22;59870;50.106;8.580;2023-03-05T16:44:54;10.70;63.60
11246;DHT22;59870;50.106;8.580;2023-03-05T17:09:10;10.00;63.80
11246;DHT22;59870;50.106;8.580;2023-03-05T17:11:38;10.40;63.30
11246;DHT22;59870;50.106;8.580;2023-03-05T17:14:09;10.40;63.10
11246;DHT22;59870;50.106;8.580;2023-03-05T17:16:37;10.50;63.70
11246;DHT22;59870;50.106;8.580;2023-03-05T17:19:05;10.70;64.00
11246;DHT22;59870;50.106;8.580;2023-03-05T17:21:32;10.40;63.90
11246;DHT22;59870;50.106;8.580;2023-03-05T17:24:01;10.40;64.20
11246;DHT22;59870;50.106;8.580;2023-03-05T17:26:29;11.00;64.60
11246;DHT22;59870;50.106;8.580;2023-03-05T17:28:59;10.50;64.10
11246;DHT22;59870;50.106;8.580;2023-03-05T17:31:26;10.50;64.20
11246;DHT22;59870;50.106;8.580;2023-03-05T17:33:57;10.70;64.40
11246;DHT22;59870;50.106;8.580;2023-03-05T17:36:51;10.40;64.00
11246;DHT22;59870;50.106;8.580;2023-03-05T17:39:18;10.40;64.50
11246;DHT22;59870;50.106;8.580;2023-03-05T17:42:11;10.50;63.90
11246;DHT22;59870;50.106;8.580;2023-03-05T17:45:14;10.40;64.30
11246;DHT22;59870;50.106;8.580;2023-03-05T17:54:25;10.40;64.80
11246;DHT22;59870;50.106;8.580;2023-03-05T17:57:53;9.90;64.30
11246;DHT22;59870;50.106;8.580;2023-03-05T18:00:25;10.30;64.70
11246;DHT22;59870;50.106;8.580;2023-03-05T21:01:52;9.60;69.20
11246;DHT22;59870;50.106;8.580;2023-03-05T21:04:20;9.60;68.00
11246;DHT22;59870;50.106;8.580;2023-03-05T21:07:25;9.20;67.80
11246;DHT22;59870;50.106;8.580;2023-03-05T21:16:49;9.50;69.00
11246;DHT22;59870;50.106;8.580;2023-03-05T22:02:20;9.30;69.90
11246;DHT22;59870;50.106;8.580;2023-03-05T22:04:48;9.50;70.00
11246;DHT22;59870;50.106;8.580;2023-03-05T22:07:17;9.20;70.20
11246;DHT22;59870;50.106;8.580;2023-03-05T22:09:44;9.20;70.00
11246;DHT22;59870;50.106;8.580;2023-03-05T22:12:12;9.20;70.20
11246;DHT22;59870;50.106;8.580;2023-03-05T22:14:46;9.20;70.60
11246;DHT22;59870;50.106;8.580;2023-03-05T22:17:14;9.20;69.90